createdAt,value
2023-03-10T00:00:00.496Z,5.50
2023-03-10T00:10:02.705Z,7.70
2023-03-10T00:20:11.551Z,9.53
2023-03-10T00:30:14.230Z,4.77
2023-03-10T00:40:16.563Z,3.63
2023-03-10T00:50:18.689Z,6.27
2023-03-10T01:00:23.393Z,2.60
2023-03-10T01:10:25.452Z,3.03
2023-03-10T01:20:27.550Z,1.93
2023-03-10T01:30:29.653Z,2.93
2023-03-10T01:40:32.418Z,0.83
2023-03-10T01:50:34.610Z,2.83
2023-03-10T02:00:40.492Z,0.50
2023-03-10T02:10:42.665Z,1.07
2023-03-10T02:20:56.702Z,0.80
2023-03-10T02:30:59.192Z,0.30
2023-03-10T02:41:02.004Z,0.87
2023-03-10T02:51:20.016Z,0.87
2023-03-10T03:01:22.544Z,0.90
2023-03-10T03:11:25.251Z,1.70
2023-03-10T03:21:28.734Z,2.83
2023-03-10T03:31:31.335Z,0.70
2023-03-10T03:41:43.622Z,2.13
2023-03-10T03:51:46.710Z,4.17
2023-03-10T04:01:49.164Z,1.70
2023-03-10T04:11:51.394Z,2.33
2023-03-10T04:21:55.585Z,3.47
2023-03-10T04:32:05.344Z,4.70
2023-03-10T04:42:11.361Z,6.50
2023-03-10T04:52:14.307Z,4.93
2023-03-10T05:02:18.313Z,6.63
2023-03-10T05:12:20.638Z,7.43
2023-03-10T05:22:22.817Z,10.17
2023-03-10T05:32:25.042Z,7.40
2023-03-10T05:42:28.178Z,4.03
2023-03-10T05:52:30.447Z,4.57
2023-03-10T06:02:32.953Z,8.87
2023-03-10T06:12:35.198Z,9.70
2023-03-10T06:22:37.314Z,9.17
2023-03-10T06:32:39.442Z,8.43
2023-03-10T06:42:41.910Z,11.03
2023-03-10T06:52:45.311Z,5.30
2023-03-10T07:02:47.410Z,8.40
2023-03-10T07:12:54.880Z,5.60
2023-03-10T07:22:56.926Z,5.20
2023-03-10T07:32:58.979Z,5.27
2023-03-10T07:43:01.392Z,8.73
2023-03-10T07:53:04.302Z,6.63
2023-03-10T08:03:06.387Z,8.57
2023-03-10T08:13:08.526Z,7.43
2023-03-10T08:23:10.614Z,8.67
2023-03-10T08:33:12.744Z,8.47
2023-03-10T08:43:14.879Z,8.03
2023-03-10T08:53:16.946Z,7.97
2023-03-10T09:03:19.309Z,7.53
2023-03-10T09:13:21.748Z,4.63
2023-03-10T09:23:23.811Z,8.35
2023-03-10T09:33:25.884Z,8.47
2023-03-10T09:43:30.886Z,4.83
2023-03-10T09:53:38.975Z,6.27
2023-03-10T10:03:52.551Z,3.70
2023-03-10T10:14:26.230Z,7.23
2023-03-10T10:24:30.882Z,7.10
2023-03-10T10:34:33.950Z,8.77
2023-03-10T10:44:41.124Z,6.60
2023-03-10T10:54:43.687Z,8.97
2023-03-10T11:04:46.809Z,15.97
2023-03-10T11:15:01.799Z,8.90
2023-03-10T11:25:27.573Z,8.30
2023-03-10T11:35:43.846Z,7.63
2023-03-10T11:45:54.320Z,6.63
2023-03-10T11:55:57.580Z,6.20
2023-03-10T12:06:00.736Z,5.40
2023-03-10T12:16:04.155Z,4.80
2023-03-10T12:26:06.373Z,4.87
2023-03-10T12:36:15.929Z,6.03
2023-03-10T12:46:39.739Z,3.90
2023-03-10T12:56:52.482Z,3.20
2023-03-10T13:06:56.837Z,3.47
2023-03-10T13:17:00.669Z,19.20
2023-03-10T13:27:13.795Z,3.83
2023-03-10T13:37:15.962Z,5.73
2023-03-10T13:47:20.410Z,4.00
2023-03-10T13:57:26.729Z,2.67
2023-03-10T14:07:36.974Z,3.67
2023-03-10T14:17:39.653Z,1.58
2023-03-10T14:27:44.778Z,0.77
2023-03-10T14:37:50.777Z,1.23
2023-03-10T14:47:54.644Z,0.73
2023-03-10T14:57:59.644Z,0.87
2023-03-10T15:08:04.209Z,0.30
2023-03-10T15:18:09.158Z,0.70
2023-03-10T15:28:12.657Z,0.40
2023-03-10T15:38:15.372Z,0.30
2023-03-10T15:48:17.906Z,0.73
2023-03-10T15:58:20.120Z,1.13
2023-03-10T16:08:22.282Z,1.30
2023-03-10T16:18:24.790Z,1.07
2023-03-10T16:28:26.853Z,1.27
2023-03-10T16:38:29.324Z,1.73
2023-03-10T16:48:31.625Z,0.30
2023-03-10T16:58:34.049Z,0.57
2023-03-10T17:08:37.471Z,0.50
2023-03-10T17:18:39.532Z,0.43
2023-03-10T17:28:42.885Z,0.70
2023-03-10T17:38:45.640Z,1.40
2023-03-10T17:48:47.994Z,2.13
2023-03-10T17:58:52.562Z,2.37
2023-03-10T18:08:56.445Z,2.57
2023-03-10T18:18:59.564Z,3.40
2023-03-10T18:29:01.620Z,3.30
2023-03-10T18:39:14.123Z,3.50
2023-03-10T18:49:16.718Z,3.13
2023-03-10T18:59:19.984Z,2.37
2023-03-10T19:09:24.497Z,3.23
2023-03-10T19:19:28.462Z,4.33
2023-03-10T19:29:34.764Z,3.73
2023-03-10T19:39:37.155Z,2.47
2023-03-10T19:49:39.659Z,4.13
2023-03-10T19:59:42.308Z,4.03
2023-03-10T20:09:46.057Z,3.93
2023-03-10T20:19:48.267Z,4.80
2023-03-10T20:29:50.415Z,3.50
2023-03-10T20:39:52.559Z,3.00
2023-03-10T20:49:55.707Z,2.20
2023-03-10T20:59:58.212Z,2.17
2023-03-10T21:10:00.386Z,3.20
2023-03-10T21:20:07.905Z,4.13
2023-03-10T21:30:12.775Z,3.27
2023-03-10T21:40:19.644Z,2.50
2023-03-10T21:50:22.370Z,3.23
2023-03-10T22:00:24.714Z,3.80
2023-03-10T22:10:27.354Z,3.37
2023-03-10T22:20:29.694Z,4.70
2023-03-10T22:30:32.093Z,4.70
2023-03-10T22:40:34.398Z,5.03
2023-03-10T22:50:39.312Z,5.73
2023-03-10T23:00:42.564Z,5.53
2023-03-10T23:10:44.772Z,2.57
2023-03-10T23:20:49.032Z,2.57
2023-03-10T23:30:51.448Z,3.10
2023-03-10T23:40:55.324Z,3.30
2023-03-10T23:50:57.762Z,3.50
